Gautier, Mississippi
Current Conditions -  °F | °C
As of 9:53 PM on Thursday 27 Nov 2014 (Local Time) from KPQL Reporting Station
Clear Clear  
Wind Chill: 39°   Ceiling: Unl
Heat Index: 39°   Visibility: 10mi
Dew Point: 32°   Wind: 0mph
Humidity: 76%   Direction: NA
Pressure: 30.45"   Gusts: NA
Location:  30.39°N, 88.65°W
Report Text: KPQL 280353Z AUTO 00000KT 10SM CLR 04/00 A3045 RMK AO2 SLP312 T00390000 TSNO
Loading
Personal Weather Stations






























Interactive Weather Map New forecast layout! Learn more

10-Day Weather Forecast

Advertisements
Track Severe Weather on mobile